Weather observations for the past three days for
Marysville Municipal Airport
Imperial (Metric)
Date Time (cdt) Wind (mph) Vis. (mi.) Weather Sky Cond. Temperature (ºF) Relative Humidity Wind Chill (°F) Heat Index (°F) Pressure Precipitation (in)
Air Dwpt 6 hour altimeter (in) sea level (mb) 1 hr 3 hr 6 hr
Max. Min.
07 04:15 SW 6 10.00 Fair CLR 42.8 35.6 76% 40 30 0.0
07 03:55 S 6 10.00 Fair CLR 42.8 35.6 76% 40 30 0.0
07 03:35 SW 6 10.00 Fair CLR 42.8 35.6 76% 40 30 0.0
07 03:15 S 5 10.00 Fair CLR 41 33.8 76% 38 30.01 0.0
07 02:55 S 5 10.00 Fair CLR 41 33.8 76% 38 30.01 0.0
07 02:15 S 6 10.00 Fair CLR 42.8 33.8 71% 40 30.02 0.0
07 01:55 S 5 10.00 Fair CLR 42.8 33.8 71% 41 30.03 0.0
07 01:35 S 5 10.00 Fair CLR 42.8 32 66% 41 30.03 0.0
07 01:15 S 6 10.00 Fair CLR 42.8 32 66% 40 30.04 0.0
07 00:55 S 5 10.00 Fair CLR 42.8 32 66% 41 30.04 0.0
07 00:35 S 3 10.00 Fair CLR 44.6 32 61% 30.05 0.0
07 00:15 SW 6 10.00 Fair CLR 44.6 30.2 57% 42 30.05 0.0
06 23:55 S 5 10.00 Fair CLR 44.6 30.2 57% 43 30.05 0.0
06 23:35 S 6 10.00 Fair CLR 44.6 30.2 57% 42 30.05 0.0
06 23:15 S 5 10.00 Fair CLR 46.4 30.2 53% 45 30.05 0.0
06 22:55 S 3 10.00 Fair CLR 48.2 30.2 50% 30.05 0.0
06 22:35 SW 5 10.00 Fair CLR 50 28.4 43% 49 30.05 0.0
06 22:15 SW 6 10.00 Fair CLR 50 28.4 43% 48 30.05 0.0
06 21:35 S 3 10.00 Fair CLR 50 30.2 47% 30.04 0.0
06 21:15 Calm 10.00 Fair CLR 48.2 28.4 46% 30.03 0.0
06 20:55 S 3 10.00 Fair CLR 50 28.4 43% 30.03 0.0
06 20:35 S 3 10.00 Fair CLR 51.8 24.8 35% 30.03 0.0
06 20:15 Calm 10.00 Fair CLR 55.4 21.2 26% 30.03 0.0
06 19:55 Calm 10.00 Fair CLR 55.4 19.4 24% 30.02 0.0
06 19:35 NW 5 10.00 Fair CLR 59 19.4 21% 30.03 0.0
06 19:15 W 7 10.00 Fair CLR 59 19.4 21% 30.03 0.0
06 18:55 NW 7 10.00 Fair CLR 60.8 17.6 19% 30.03 0.0
06 18:35 W 9 10.00 Fair CLR 60.8 17.6 19% 30.03 0.0
06 18:15 NW 7 10.00 Fair CLR 59 17.6 20% 30.04 0.0
06 17:55 W 7 10.00 Partly Cloudy SCT080 60.8 17.6 19% 30.04 0.0
06 17:35 NW 9 10.00 Mostly Cloudy BKN080 62.6 15.8 16% 30.04 0.0
06 16:55 W 5 10.00 Fair CLR 59 17.6 20% 30.05 0.0
06 16:35 W 8 G 16 10.00 Fair CLR 62.6 17.6 17% 30.06 0.0
06 16:15 NW 7 10.00 Fair CLR 60.8 17.6 19% 30.07 0.0
06 15:55 NW 3 10.00 Partly Cloudy SCT080 60.8 17.6 19% 30.07 0.0
06 15:35 S 5 10.00 Mostly Cloudy BKN080 60.8 19.4 20% 30.08 0.0
06 15:15 NW 8 10.00 Partly Cloudy SCT080 60.8 17.6 19% 30.09 0.0
06 14:55 NW 10 G 20 10.00 Partly Cloudy SCT080 60.8 17.6 19% 30.1 0.0
06 14:35 N 9 G 17 10.00 Partly Cloudy SCT080 59 15.8 18% 30.1 0.0
06 14:15 N 12 10.00 Fair CLR 59 14 17% 30.1 0.0
06 13:55 NW 9 G 16 10.00 Fair CLR 59 15.8 18% 30.1 0.0
06 13:35 SW 3 10.00 Fair CLR 59 17.6 20% 30.1 0.0
06 13:15 NW 12 10.00 Fair CLR 57.2 17.6 21% 30.1 0.0
06 12:55 N 7 10.00 Fair CLR 57.2 15.8 20% 30.11 0.0
06 12:35 NW 10 10.00 Fair CLR 57.2 14 18% 30.12 0.0
06 12:15 NW 6 G 9 10.00 Fair CLR 55.4 14 19% 30.12 0.0
06 11:55 W 6 10.00 Fair CLR 55.4 19.4 24% 30.12 0.0
06 11:35 W 7 10.00 Fair CLR 55.4 21.2 26% 30.13 0.0
06 11:15 NE 5 10.00 Fair CLR 53.6 19.4 26% 30.13 0.0
06 10:55 N 3 10.00 Fair CLR 51.8 21.2 30% 30.13 0.0
06 10:35 Calm 10.00 Partly Cloudy SCT120 51.8 21.2 30% 30.13 0.0
06 10:15 Calm 10.00 Mostly Cloudy BKN120 50 23 35% 30.13 0.0
06 09:55 NE 3 10.00 Partly Cloudy SCT120 50 23 35% 30.12 0.0
06 09:35 N 3 10.00 Fair CLR 48.2 26.6 43% 30.12 0.0
06 09:15 N 5 10.00 Fair CLR 48.2 26.6 43% 47 30.12 0.0
06 08:55 Calm 10.00 Partly Cloudy SCT080 46.4 28.4 50% 30.12 0.0
06 08:35 NW 3 10.00 Fair CLR 46.4 30.2 53% 30.11 0.0
06 08:15 Calm 10.00 Fair CLR 44.6 32 61% 30.1 0.0
06 07:55 NW 3 10.00 Fair CLR 44.6 32 61% 30.1 0.0
06 07:15 NW 3 10.00 Fair CLR 42.8 32 66% 30.08 0.0
06 06:55 Calm 10.00 Partly Cloudy SCT085 41 32 70% 30.06 0.0
06 06:35 Calm 10.00 Mostly Cloudy BKN085 41 32 70% 30.05 0.0
06 05:55 N 3 10.00 Fair CLR 42.8 32 66% 30.04 0.0
06 05:35 Calm 10.00 Fair CLR 42.8 32 66% 30.04 0.0
06 05:15 N 3 10.00 Partly Cloudy SCT120 44.6 30.2 57% 30.04 0.0
06 04:55 N 5 10.00 Mostly Cloudy SCT095 BKN120 44.6 32 61% 43 30.03 0.0
06 04:35 Calm 10.00 Overcast BKN085 OVC095 44.6 32 61% 30.03 0.0
06 04:15 Calm 10.00 Overcast SCT080 OVC095 44.6 32 61% 30.03 0.0
06 03:55 Calm 10.00 Overcast OVC085 46.4 30.2 53% 30.02 0.0
06 03:35 Calm 10.00 Overcast SCT055 SCT065 OVC075 46.4 30.2 53% 30.02 0.0
06 03:15 Calm 10.00 Overcast OVC065 46.4 32 57% 30.02 0.0
06 02:55 Calm 10.00 Overcast SCT065 OVC080 46.4 32 57% 30.01 0.0
06 02:35 Calm 10.00 Overcast BKN070 OVC080 46.4 32 57% 30.01 0.0
06 02:15 Calm 10.00 Overcast BKN075 OVC090 46.4 30.2 53% 30.01 0.0
06 01:55 N 3 10.00 Overcast BKN090 OVC110 46.4 28.4 50% 30 0.0
06 01:35 N 3 10.00 Overcast OVC110 46.4 28.4 50% 30 0.0
06 01:15 N 3 10.00 Overcast OVC110 48.2 26.6 43% 30 0.0
06 00:50 N 5 10.00 Overcast OVC110 48.2 28.4 46% 47 29.99 0.0
06 00:35 N 5 10.00 Overcast OVC110 48.2 28.4 46% 47 29.99 0.0
06 00:15 N 5 10.00 Overcast OVC110 48.2 30.2 50% 47 29.97 0.0
05 23:55 NE 3 10.00 Overcast OVC100 50 30.2 47% 29.98 0.0
05 23:35 NE 3 10.00 Overcast OVC090 50 32 50% 29.97 0.0
05 23:15 Calm 10.00 Overcast OVC100 50 32 50% 29.99 0.0
05 22:55 N 5 10.00 Overcast OVC100 50 30.2 47% 49 29.99 0.0
05 22:35 N 6 10.00 Overcast OVC100 50 30.2 47% 48 29.99 0.0
05 22:15 Calm 10.00 Overcast SCT075 OVC100 51.8 28.4 41% 29.97 0.0
05 21:55 NE 3 10.00 Overcast BKN075 OVC095 53.6 24.8 33% 29.95 0.0
05 21:35 Calm 10.00 Overcast BKN085 OVC095 50 30.2 47% 29.95 0.0
05 21:15 Calm 10.00 Overcast SCT065 BKN095 OVC120 51.8 28.4 41% 29.92 0.0
05 20:55 Calm 10.00 Overcast OVC075 51.8 28.4 41% 29.92 0.0
05 20:35 N 3 10.00 Overcast BKN075 OVC095 53.6 26.6 35% 29.93 0.0
05 20:15 N 6 10.00 Overcast OVC095 53.6 26.6 35% 29.92 0.0
05 19:55 N 9 10.00 Overcast OVC095 53.6 24.8 33% 29.92 0.0
05 19:35 N 9 10.00 Overcast OVC095 55.4 26.6 33% 29.9 0.0
05 18:55 N 12 10.00 Mostly Cloudy BKN095 BKN120 55.4 24.8 31% 29.9 0.0
05 18:35 N 9 10.00 Overcast OVC095 55.4 24.8 31% 29.89 0.0
05 18:15 N 9 10.00 Overcast BKN060 BKN070 OVC095 55.4 26.6 33% 29.9 0.0
05 17:55 N 9 10.00 Overcast BKN065 OVC080 55.4 26.6 33% 29.9 0.0
05 17:35 N 3 10.00 Overcast BKN065 OVC090 55.4 28.4 36% 29.9 0.0
05 17:15 N 6 10.00 Overcast OVC090 55.4 28.4 36% 29.9 0.0
05 16:55 N 8 10.00 Overcast OVC090 55.4 26.6 33% 29.9 0.0
05 16:35 N 7 10.00 Overcast OVC090 55.4 26.6 33% 29.9 0.0
05 16:15 N 9 10.00 Overcast OVC090 55.4 26.6 33% 29.92 0.0
05 15:55 N 7 10.00 Overcast OVC090 55.4 26.6 33% 29.92 0.0
05 15:35 N 10 10.00 Overcast OVC090 55.4 26.6 33% 29.92 0.0
05 15:15 N 9 10.00 Overcast OVC090 53.6 26.6 35% 29.93 0.0
05 14:55 N 13 10.00 Overcast OVC090 53.6 28.4 38% 29.93 0.0
05 14:35 N 10 G 17 10.00 Overcast BKN090 OVC110 53.6 28.4 38% 29.94 0.0
05 14:15 N 9 10.00 Overcast SCT047 BKN065 OVC100 53.6 30.2 41% 29.94 0.0
05 13:55 N 10 10.00 Unknown Precip SCT043 OVC049 53.6 32 44% 29.93 0.0
05 13:35 N 7 10.00 Unknown Precip SCT040 BKN049 OVC055 53.6 32 44% 29.94 0.0
05 13:15 N 9 10.00 Overcast SCT050 OVC060 53.6 35.6 51% 29.94 0.0
05 12:55 N 7 10.00 Overcast SCT050 OVC070 53.6 35.6 51% 29.94 0.0
05 12:15 N 5 10.00 Overcast OVC070 51.8 33.8 50% 29.95 0.0
05 11:55 N 5 10.00 Overcast BKN070 OVC085 51.8 33.8 50% 29.95 0.0
05 11:35 Calm 10.00 Overcast BKN070 OVC080 50 35.6 58% 29.95 0.0
05 11:15 N 5 10.00 Overcast BKN075 BKN080 OVC110 50 37.4 62% 49 29.94 0.0
05 10:55 N 6 10.00 Overcast SCT090 OVC110 50 39.2 67% 48 29.94 0.0
05 10:35 N 5 10.00 Overcast OVC090 50 37.4 62% 49 29.93 0.0
05 10:15 N 3 10.00 Overcast SCT070 OVC090 50 37.4 62% 29.93 0.0
05 09:55 N 5 10.00 Overcast SCT050 BKN060 OVC080 48.2 41 76% 47 29.93 0.0
05 09:35 N 5 10.00 Overcast BKN050 OVC060 46.4 41 82% 45 29.93 0.0
05 09:15 N 6 10.00 Overcast BKN065 OVC070 46.4 41 82% 44 29.93 0.0
05 08:55 N 3 10.00 Overcast OVC065 46.4 37.4 71% 29.93 0.0
05 08:35 SE 5 10.00 Unknown Precip BKN060 OVC075 46.4 37.4 71% 45 29.9 0.0
05 08:15 E 3 10.00 Overcast OVC060 46.4 37.4 71% 29.9 0.0
05 07:55 N 5 10.00 Unknown Precip SCT049 SCT055 OVC070 46.4 41 82% 45 29.89 0.0
05 07:30 NE 3 10.00 Unknown Precip SCT055 OVC070 44.6 39.2 81% 29.89 0.0
05 07:15 E 7 10.00 Unknown Precip SCT055 OVC070 44.6 39.2 81% 41 29.87 0.0
05 06:55 NE 3 7.00 Unknown Precip BKN070 OVC085 46.4 37.4 71% 29.88 0.0 0.02
05 06:35 NE 3 7.00 Unknown Precip SCT070 OVC085 46.4 35.6 66% 29.87 0.0
05 06:15 N 5 10.00 Overcast OVC085 46.4 35.6 66% 45 29.86 0.0
05 05:55 NE 8 10.00 Unknown Precip OVC085 48.2 33.8 58% 45 29.82 0.0
05 05:15 NE 7 10.00 Unknown Precip OVC085 50 32 50% 48 29.83 0.0
05 04:55 NE 7 10.00 Overcast OVC085 50 32 50% 48 29.83 0.0
05 04:35 NE 8 10.00 Overcast OVC085 50 32 50% 47 29.82 0.0
05 04:15 NE 8 10.00 Overcast OVC085 51.8 32 47% 29.82 0.0
05 03:55 NE 9 10.00 Overcast OVC085 51.8 32 47% 29.82 0.0
05 03:35 NE 13 G 17 10.00 Overcast OVC085 51.8 32 47% 29.82 0.0
05 03:15 NE 12 G 16 10.00 Overcast OVC085 51.8 32 47% 29.82 0.0
05 02:55 NE 12 10.00 Overcast OVC085 51.8 32 47% 29.82 0.0
05 02:35 NE 9 G 16 10.00 Overcast BKN085 OVC110 51.8 30.2 44% 29.82 0.0
05 02:15 NE 13 G 16 10.00 Overcast BKN085 OVC110 51.8 30.2 44% 29.81 0.0
05 01:55 NE 12 10.00 Overcast OVC085 53.6 30.2 41% 29.82 0.0
05 01:35 NE 15 G 22 10.00 Overcast OVC085 53.6 30.2 41% 29.8 0.0
05 01:15 N 15 G 22 10.00 Overcast OVC095 53.6 30.2 41% 29.79 0.0
05 00:55 NE 12 10.00 Mostly Cloudy SCT080 BKN095 53.6 32 44% 29.79 0.0
05 00:35 N 17 G 29 10.00 Overcast SCT070 SCT085 OVC095 55.4 28.4 36% 29.77 0.0
05 00:15 N 13 G 23 10.00 Overcast BKN085 OVC120 55.4 28.4 36% 29.8 0.0
04 23:55 N 13 G 18 10.00 Partly Cloudy SCT120 57.2 28.4 33% 29.78 0.0
04 23:35 N 21 G 29 10.00 Fair and Breezy CLR 57.2 28.4 33% 29.75 0.0
04 23:15 N 15 G 22 10.00 Fair CLR 59 28.4 31% 29.75 0.0
04 22:55 N 17 G 24 10.00 Fair CLR 59 28.4 31% 29.76 0.0
04 22:35 N 16 G 22 10.00 Fair CLR 60.8 28.4 29% 29.75 0.0
04 22:15 N 17 G 24 10.00 Fair CLR 62.6 28.4 27% 29.74 0.0
04 21:55 N 18 G 25 10.00 Fair CLR 64.4 28.4 26% 29.72 0.0
04 21:35 N 13 G 18 10.00 Fair CLR 64.4 28.4 26% 29.7 0.0
04 21:15 N 14 G 21 10.00 Fair CLR 66.2 28.4 24% 29.68 0.0
04 20:55 N 16 G 22 10.00 Fair CLR 68 28.4 23% 29.67 0.0
04 20:35 N 17 G 28 10.00 Fair CLR 69.8 28.4 21% 29.65 0.0
04 20:15 N 15 G 20 10.00 Fair CLR 69.8 28.4 21% 29.63 0.0
04 19:55 N 13 G 25 10.00 Fair CLR 71.6 28.4 20% 29.62 0.0
04 19:35 N 17 G 28 10.00 Fair CLR 73.4 28.4 19% 29.61 0.0
04 19:15 NE 18 G 28 10.00 Fair CLR 77 30.2 18% 77 29.59 0.0
04 18:55 N 15 G 25 10.00 Fair CLR 77 32 19% 77 29.59 0.0
04 18:35 N 18 G 25 10.00 Fair CLR 80.6 32 17% 79 29.58 0.0
04 18:15 N 16 G 24 10.00 Fair CLR 82.4 23 11% 80 29.58 0.0
04 17:55 Calm 10.00 Fair CLR 84.2 14 7% 81 29.58 0.0
04 17:35 NW 9 10.00 Fair CLR 86 14 7% 83 29.57 0.0
04 17:15 NW 8 10.00 Fair CLR 86 14 7% 83 29.56 0.0
04 16:55 W 3 10.00 Fair CLR 84.2 26.6 12% 81 29.56 0.0
04 16:35 W 8 10.00 Fair CLR 86 23 10% 83 29.57 0.0
04 16:15 W 5 10.00 Fair CLR 86 19.4 8% 83 29.57 0.0
04 15:55 W 6 10.00 Fair CLR 84.2 19.4 9% 81 29.58 0.0
04 15:35 NW 9 G 21 10.00 Fair CLR 86 19.4 8% 83 29.59 0.0
04 15:15 W 5 10.00 Fair CLR 84.2 23 10% 81 29.59 0.0
04 14:55 NW 3 10.00 Fair CLR 84.2 21.2 10% 81 29.6 0.0
04 14:35 N 5 10.00 Fair CLR 84.2 26.6 12% 81 29.6 0.0
04 14:15 E 5 10.00 Fair CLR 84.2 21.2 10% 81 29.6 0.0
04 13:55 NW 8 G 18 10.00 Fair CLR 84.2 19.4 9% 81 29.61 0.0
04 13:35 NW 10 G 17 10.00 Fair CLR 82.4 23 11% 80 29.61 0.0
04 13:15 N 13 G 18 10.00 Fair CLR 82.4 24.8 12% 80 29.61 0.0
04 12:55 NW 3 G 25 10.00 Fair CLR 82.4 23 11% 80 29.61 0.0
04 12:35 N 16 G 20 10.00 Fair CLR 82.4 23 11% 80 29.61 0.0
04 12:15 NW 13 G 16 10.00 Fair CLR 84.2 26.6 12% 81 29.62 0.0
04 11:55 NW 9 G 21 10.00 Fair CLR 82.4 28.4 14% 80 29.62 0.0
04 11:35 N 12 G 18 10.00 Fair CLR 82.4 30.2 15% 80 29.62 0.0
04 11:15 NW 7 10.00 Fair CLR 78.8 39.2 24% 78 29.62 0.0
04 10:55 NW 7 10.00 Fair CLR 77 41 28% 78 29.62 0.0
04 10:35 W 8 10.00 Fair CLR 77 41 28% 78 29.62 0.0
04 10:15 W 6 10.00 Fair CLR 73.4 42.8 33% 29.62 0.0
04 09:55 W 7 10.00 Fair CLR 71.6 41 33% 29.62 0.0
04 09:35 W 6 10.00 Fair CLR 69.8 41 35% 29.62 0.0
04 09:15 SW 8 10.00 Fair CLR 68 41 38% 29.62 0.0
04 08:55 SW 8 10.00 Fair CLR 64.4 42.8 46% 29.62 0.0
04 08:35 SW 7 10.00 Fair CLR 60.8 41 48% 29.62 0.0
04 08:15 SW 5 10.00 Fair CLR 59 41 51% 29.62 0.0
04 07:55 S 3 10.00 Fair CLR 59 41 51% 29.61 0.0
04 07:35 S 3 10.00 Fair CLR 53.6 41 63% 29.61 0.0
04 07:15 S 3 10.00 Fair CLR 50 39.2 67% 29.61 0.0
04 06:55 S 3 10.00 Fair CLR 48.2 37.4 66% 29.6 0.0
04 06:35 Calm 10.00 Fair CLR 46.4 35.6 66% 29.6 0.0
04 06:15 Calm 10.00 Fair CLR 48.2 35.6 62% 29.6 0.0
04 05:55 Calm 10.00 Fair CLR 50 35.6 58% 29.6 0.0
04 05:35 S 5 10.00 Fair CLR 50 37.4 62% 49 29.6 0.0
04 05:15 Calm 10.00 Fair CLR 51.8 35.6 54% 29.61 0.0
04 04:55 SE 5 10.00 Fair CLR 53.6 35.6 51% 29.61 0.0
Date Time (cdt) Wind (mph) Vis. (mi.) Weather Sky Cond. Air Dwpt Max. Min. Relative Humidity Wind Chill (°F) Heat Index (°F) altimeter (in) sea level (mb) 1 hr 3 hr 6 hr
6 hour
Temperature (ºF) Pressure Precipitation (in)